aviador You're here:

PAVA Decoded Metar

Chevak in AK, USA
Report Time2017-11-23 19:56:00
UTC Time2017-11-23 20:29:23
Flight Rules vfr VFR
Wind340° at 15 kt
W.Decomp.*RWY 02: 9.0 kt HW 12 kt LCW
W.Rank340° ranks 6
Current wind is above 340° avg. (12.1)
Visibility9999 m
Phenomena:N/A
Clouds:N/A
Expected CloudBase > 400 ft AGL from Temp-Dew spread
CeilingNone
Temp-5°C (ISA -20)
Dew Point-6°C (93% RH)
AAT-13.1°C
QNH1011 hPa
Density Alt-2,257 ft
Elevation75 ft
Report Wrong Elevation
Raw Report
PAVA 231956Z AUTO 34015KT 10SM CLR M05/M06 A2986 RMK AO2 PK WND
01029/1901 SLP199 T10501061 FZRANO=

Extra information for PAVA:More info

Airport Information Weather charts Add Link Nearby Venues Social comments

AIRNAV info for PAVA